Time;durP1;ratioP1;P1;durP2;ratioP2;P2;SDS_P1;SDS_P2;PMS_P1;PMS_P2;Temp;Humidity;BMP_temperature;BMP_pressure;BME280_temperature;BME280_humidity;BME280_pressure;Samples;Min_cycle;Max_cycle;Signal;HPM_P1;HPM_P2
2024/04/09 00:34:12;;;;;;;;;;;;;;;;;;;;;
2024/04/09 00:36:46;;;;;;;4.00;1.17;;;14.70;99.90;;;;;;4053956;29;20217;-95
2024/04/09 00:40:21;;;;;;;;;;;;;;;;;;;;;
2024/04/09 00:54:05;;;;;;;3.13;0.38;;;14.70;99.90;;;;;;4039397;29;20712;-95
2024/04/09 01:03:14;;;;;;;0.82;0.50;;;14.60;99.90;;;;;;3943905;30;20194;-95
2024/04/09 01:06:06;;;;;;;1.30;0.40;;;14.40;99.90;;;;;;3946682;30;20299;-95
2024/04/09 01:11:46;;;;;;;;;;;;;;;;;;;;;
2024/04/09 01:14:27;;;;;;;0.93;0.70;;;14.30;99.90;;;;;;3946358;30;20681;-95
2024/04/09 01:17:19;;;;;;;0.98;0.50;;;14.50;99.90;;;;;;3934857;30;20224;-94
2024/04/09 01:19:54;;;;;;;;;;;;;;;;;;;;;
2024/04/09 01:22:54;;;;;;;4.60;0.70;;;14.50;99.90;;;;;;3953977;30;20213;-96
2024/04/09 01:25:08;;;;;;;;;;;;;;;;;;;;;
2024/04/09 01:27:29;;;;;;;3.28;0.57;;;14.30;99.90;;;;;;4013995;29;20184;-95
2024/04/09 01:30:05;;;;;;;0.82;0.40;;;14.20;99.90;;;;;;4053766;29;20220;-95
2024/04/09 01:32:25;;;;;;;2.97;1.25;;;14.10;99.90;;;;;;4054571;29;20216;-95
2024/04/09 01:34:48;;;;;;;2.40;0.80;;;14.20;99.90;;;;;;4055470;29;20175;-94
2024/04/09 01:37:17;;;;;;;0.65;0.50;;;14.20;99.90;;;;;;4054144;29;20221;-95
2024/04/09 01:39:21;;;;;;;4.97;0.93;;;14.10;99.90;;;;;;4055053;29;20187;-95
2024/04/09 01:41:46;;;;;;;0.65;0.55;;;14.20;99.90;;;;;;4054478;29;20246;-93
2024/04/09 01:44:00;;;;;;;0.70;0.52;;;14.10;99.90;;;;;;4053433;29;20221;-94
2024/04/09 01:46:09;;;;;;;4.93;1.00;;;14.30;99.90;;;;;;4024154;29;20257;-95
2024/04/09 01:48:25;;;;;;;1.05;0.60;;;14.30;99.90;;;;;;4040889;29;20178;-94
2024/04/09 01:50:51;;;;;;;1.40;0.90;;;14.30;99.90;;;;;;4054630;29;20231;-94
2024/04/09 01:53:09;;;;;;;1.10;0.65;;;14.40;99.90;;;;;;4039457;29;20203;-95
2024/04/09 02:04:23;;;;;;;1.60;1.02;;;14.00;99.90;;;;;;4046795;29;20743;-94
2024/04/09 02:06:28;;;;;;;1.55;0.90;;;14.10;99.90;;;;;;4024369;29;20175;-94
2024/04/09 02:08:50;;;;;;;;;;;;;;;;;;;;;
2024/04/09 02:11:53;;;;;;;;;;;;;;;;;;;;;
2024/04/09 02:14:33;;;;;;;;;;;;;;;;;;;;;
2024/04/09 02:17:21;;;;;;;;;;;;;;;;;;;;;
2024/04/09 02:24:10;;;;;;;0.93;0.65;;;14.00;99.90;;;;;;3963732;29;20237;-96
2024/04/09 02:26:26;;;;;;;;;;;;;;;;;;;;;
2024/04/09 02:29:06;;;;;;;2.55;0.60;;;13.80;99.90;;;;;;3992347;29;20196;-94
2024/04/09 02:31:58;;;;;;;4.05;0.73;;;13.90;99.90;;;;;;3977585;29;20219;-94
2024/04/09 02:34:33;;;;;;;;;;;;;;;;;;;;;
2024/04/09 02:37:26;;;;;;;;;;;;;;;;;;;;;
2024/04/09 03:24:34;;;;;;;0.30;0.20;;;12.70;99.90;;;;;;4010519;29;20201;-94
2024/04/09 03:29:59;;;;;;;0.30;0.30;;;12.60;99.90;;;;;;4024600;29;20242;-94
2024/04/09 03:35:16;;;;;;;2.53;0.30;;;12.20;99.90;;;;;;4036963;29;20192;-94
2024/04/09 03:37:33;;;;;;;0.45;0.17;;;12.10;99.90;;;;;;4095539;29;20183;-94
2024/04/09 03:40:19;;;;;;;1.15;0.30;;;12.00;99.90;;;;;;4087204;29;20172;-95
2024/04/09 03:42:31;;;;;;;3.65;0.30;;;12.00;99.90;;;;;;4052960;29;20204;-95
2024/04/09 03:45:00;;;;;;;0.73;0.10;;;12.00;99.90;;;;;;4084938;29;20195;-95
2024/04/09 03:49:57;;;;;;;5.70;0.43;;;11.80;99.90;;;;;;4071550;29;20709;-94
2024/04/09 03:52:11;;;;;;;0.40;0.30;;;11.80;99.90;;;;;;4085375;29;20195;-94
2024/04/09 03:57:14;;;;;;;1.55;0.10;;;11.60;99.90;;;;;;4076612;29;20179;-94
2024/04/09 03:59:46;;;;;;;0.15;0.10;;;11.60;99.90;;;;;;4069266;29;20172;-94
2024/04/09 04:02:01;;;;;;;6.85;0.52;;;11.60;99.90;;;;;;4084204;29;20298;-95
2024/04/09 04:04:22;;;;;;;0.70;0.40;;;11.60;99.90;;;;;;4053167;29;20186;-95
2024/04/09 04:06:33;;;;;;;2.13;0.35;;;11.80;99.90;;;;;;4084904;29;20227;-94
2024/04/09 04:11:49;;;;;;;0.20;0.00;;;11.70;99.90;;;;;;4053591;29;20708;-94
2024/04/09 04:13:52;;;;;;;4.68;0.85;;;11.50;99.90;;;;;;4084145;29;20219;-94
2024/04/09 04:16:13;;;;;;;1.65;0.50;;;11.30;99.90;;;;;;4083720;29;20255;-93
2024/04/09 04:18:17;;;;;;;0.38;0.10;;;11.30;99.90;;;;;;4052968;29;20185;-94
2024/04/09 04:20:51;;;;;;;;;;;;;;;;;;;;;
2024/04/09 04:23:08;;;;;;;0.80;0.00;;;11.20;99.90;;;;;;4084196;29;20237;-95
2024/04/09 04:25:24;;;;;;;0.35;0.20;;;11.10;99.90;;;;;;4084114;29;20202;-94
2024/04/09 04:30:24;;;;;;;5.72;0.65;;;11.00;99.90;;;;;;4053099;29;20224;-95
2024/04/09 04:33:02;;;;;;;4.07;0.32;;;11.10;99.90;;;;;;4048068;29;20700;-96
2024/04/09 04:35:14;;;;;;;0.93;0.30;;;11.00;99.90;;;;;;4061474;29;20192;-94
2024/04/09 04:39:55;;;;;;;4.75;0.47;;;10.80;99.90;;;;;;4021583;29;20190;-93
2024/04/09 04:42:47;;;;;;;2.00;0.10;;;10.80;99.90;;;;;;4043752;29;20204;-95
2024/04/09 04:44:32;;;;;;;2.35;0.15;;;10.80;99.90;;;;;;4054591;29;20271;-95
2024/04/09 04:46:33;;;;;;;1.52;0.52;;;10.70;99.90;;;;;;4053792;29;20638;-93
2024/04/09 04:48:35;;;;;;;2.17;0.47;;;10.70;99.90;;;;;;4067937;29;20184;-93
2024/04/09 04:51:21;;;;;;;0.52;0.30;;;10.80;99.90;;;;;;4053602;29;20196;-95
2024/04/09 04:53:51;;;;;;;4.35;0.30;;;10.70;99.90;;;;;;4087464;29;20182;-93
2024/04/09 04:56:36;;;;;;;3.92;0.20;;;10.60;99.90;;;;;;4065319;29;20219;-96
2024/04/09 04:59:03;;;;;;;2.55;0.10;;;10.70;99.90;;;;;;4087393;29;20262;-94
2024/04/09 05:01:29;;;;;;;11.88;0.30;;;10.70;99.90;;;;;;4071727;29;20192;-95
2024/04/09 05:03:38;;;;;;;1.25;0.70;;;10.70;99.90;;;;;;4086901;29;20179;-95
2024/04/09 05:06:20;;;;;;;1.10;0.20;;;10.70;99.90;;;;;;4071210;29;20520;-94
2024/04/09 05:09:57;;;;;;;1.17;0.10;;;10.70;99.90;;;;;;4073850;29;20667;-94
2024/04/09 05:12:44;;;;;;;;;;;;;;;;;;;;;
2024/04/09 05:15:34;;;;;;;1.67;0.30;;;10.50;99.90;;;;;;4087819;29;20211;-94
2024/04/09 05:19:02;;;;;;;1.02;0.32;;;10.40;99.90;;;;;;4062369;29;20278;-93
2024/04/09 05:21:28;;;;;;;0.82;0.30;;;10.40;99.90;;;;;;4007020;29;20214;-95
2024/04/09 05:23:50;;;;;;;;;;;;;;;;;;;;;
2024/04/09 05:26:29;;;;;;;3.10;0.90;;;10.50;99.90;;;;;;4070467;29;20185;-95
2024/04/09 05:28:55;;;;;;;1.85;0.30;;;10.50;99.90;;;;;;4066529;29;20284;-95
2024/04/09 05:31:34;;;;;;;1.45;0.30;;;10.50;99.90;;;;;;4037514;29;20229;-94
2024/04/09 05:34:29;;;;;;;1.17;0.20;;;10.50;99.90;;;;;;4051852;29;20648;-95
2024/04/09 05:37:29;;;;;;;2.92;0.50;;;10.50;99.90;;;;;;4054033;29;20659;-94
2024/04/09 05:40:09;;;;;;;;;;;;;;;;;;;;;
2024/04/09 05:44:07;;;;;;;;;;;;;;;;;;;;;
2024/04/09 05:47:01;;;;;;;4.40;0.57;;;10.60;99.90;;;;;;4023401;29;20230;-95
2024/04/09 05:49:45;;;;;;;8.40;1.00;;;10.70;99.90;;;;;;3955155;29;20299;-95
2024/04/09 05:52:29;;;;;;;5.22;0.90;;;10.70;99.90;;;;;;3978240;29;20676;-94
2024/04/09 05:55:13;;;;;;;0.30;0.20;;;10.60;99.90;;;;;;4010299;29;20193;-95
2024/04/09 06:00:21;;;;;;;;;;;;;;;;;;;;;
2024/04/09 06:02:53;;;;;;;0.90;0.30;;;10.50;99.90;;;;;;4089333;29;20182;-94
2024/04/09 06:05:09;;;;;;;0.77;0.38;;;10.40;99.90;;;;;;4070283;29;20191;-96
2024/04/09 06:17:23;;;;;;;;;;;;;;;;;;;;;
2024/04/09 06:19:49;;;;;;;2.78;0.22;;;10.40;99.90;;;;;;4067043;29;20189;-94
2024/04/09 06:22:22;;;;;;;2.05;0.93;;;10.30;99.90;;;;;;4053770;29;20224;-94
2024/04/09 06:25:13;;;;;;;0.98;0.30;;;10.20;99.90;;;;;;4053458;29;20193;-95
2024/04/09 06:27:20;;;;;;;0.55;0.40;;;10.30;99.90;;;;;;4053988;29;20217;-94
2024/04/09 06:29:36;;;;;;;3.42;0.63;;;10.20;99.90;;;;;;4053800;29;20255;-95
2024/04/09 06:32:11;;;;;;;0.20;0.10;;;10.20;99.90;;;;;;4053867;29;20208;-94
2024/04/09 06:34:42;;;;;;;;;;;;;;;;;;;;;
2024/04/09 06:37:05;;;;;;;1.10;0.28;;;10.40;99.90;;;;;;4070191;29;20176;-94
2024/04/09 06:39:07;;;;;;;4.28;0.77;;;10.40;99.90;;;;;;4050049;29;20734;-93
2024/04/09 06:42:02;;;;;;;;;;;;;;;;;;;;;
2024/04/09 06:47:25;;;;;;;3.65;0.20;;;10.40;99.90;;;;;;4026914;29;20182;-94
2024/04/09 06:50:06;;;;;;;1.08;0.05;;;10.30;99.90;;;;;;4070448;29;20279;-96
2024/04/09 06:52:31;;;;;;;2.80;0.15;;;10.10;99.90;;;;;;4070092;29;20232;-94
2024/04/09 06:55:02;;;;;;;;;;;;;;;;;;;;;
2024/04/09 06:57:26;;;;;;;1.30;0.10;;;10.00;99.90;;;;;;4086903;29;20542;-95
2024/04/09 06:59:57;;;;;;;1.20;0.10;;;9.90;99.90;;;;;;4084381;29;20238;-94
2024/04/09 07:02:32;;;;;;;;;;;;;;;;;;;;;
2024/04/09 07:05:29;;;;;;;1.88;0.80;;;10.00;99.90;;;;;;4049785;29;20188;-96
2024/04/09 07:08:05;;;;;;;1.65;0.30;;;9.90;99.90;;;;;;4055135;29;20670;-96
2024/04/09 07:10:47;;;;;;;;;;;;;;;;;;;;;
2024/04/09 07:13:19;;;;;;;2.10;0.40;;;10.00;99.90;;;;;;4069330;29;20551;-93
2024/04/09 07:15:58;;;;;;;0.20;0.00;;;10.10;99.90;;;;;;4069769;29;20647;-95
2024/04/09 07:18:26;;;;;;;0.40;0.20;;;10.10;99.90;;;;;;4065756;29;20196;-94
2024/04/09 07:21:06;;;;;;;;;;;;;;;;;;;;;
2024/04/09 07:23:35;;;;;;;0.80;0.55;;;10.10;99.90;;;;;;4046270;29;20291;-95
2024/04/09 07:26:05;;;;;;;3.83;0.30;;;10.10;99.90;;;;;;4060311;29;20184;-93
2024/04/09 07:28:12;;;;;;;0.90;0.10;;;10.10;99.90;;;;;;4084883;29;20262;-94
2024/04/09 07:30:33;;;;;;;3.50;0.75;;;10.20;99.90;;;;;;4084888;29;20211;-94
2024/04/09 07:36:15;;;;;;;;;;;;;;;;;;;;;
2024/04/09 07:39:03;;;;;;;2.63;0.10;;;10.40;99.90;;;;;;4069425;29;20180;-95
2024/04/09 07:41:10;;;;;;;2.10;0.30;;;10.50;99.90;;;;;;4053344;29;20248;-93
2024/04/09 07:43:47;;;;;;;2.08;1.00;;;10.60;99.90;;;;;;4053947;29;20183;-94
2024/04/09 07:46:37;;;;;;;0.13;0.10;;;10.60;99.90;;;;;;4051985;29;20219;-94
2024/04/09 07:49:00;;;;;;;0.10;0.10;;;10.50;99.90;;;;;;4061806;29;20193;-95
2024/04/09 07:51:13;;;;;;;7.63;1.27;;;10.40;99.90;;;;;;4082984;29;20195;-95
2024/04/09 07:53:26;;;;;;;2.90;0.13;;;10.50;99.90;;;;;;4053845;29;20708;-93
2024/04/09 07:55:27;;;;;;;3.70;0.77;;;10.40;99.90;;;;;;4068795;29;20270;-95
2024/04/09 07:57:31;;;;;;;2.25;0.57;;;10.50;99.90;;;;;;4053514;29;20241;-93
2024/04/09 07:59:51;;;;;;;0.63;0.15;;;10.60;99.90;;;;;;4069040;29;20180;-93
2024/04/09 08:02:04;;;;;;;0.10;0.10;;;10.70;99.90;;;;;;4052847;29;20192;-95
2024/04/09 08:04:09;;;;;;;4.22;0.50;;;10.70;99.90;;;;;;4069312;29;20232;-93
2024/04/09 08:06:16;;;;;;;0.40;0.10;;;10.70;99.90;;;;;;4070673;29;20702;-93
2024/04/09 08:08:51;;;;;;;2.35;0.22;;;10.50;99.90;;;;;;4054489;29;20664;-94
2024/04/09 08:11:50;;;;;;;1.38;0.35;;;10.50;99.90;;;;;;4069146;29;20309;-94
2024/04/09 08:14:15;;;;;;;0.65;0.20;;;10.50;99.90;;;;;;4046353;29;20607;-93
2024/04/09 08:16:19;;;;;;;5.78;0.10;;;10.30;99.90;;;;;;4084868;29;20183;-93
2024/04/09 08:21:13;;;;;;;0.88;0.28;;;10.30;99.90;;;;;;4069123;29;20207;-93
2024/04/09 08:23:24;;;;;;;3.50;0.65;;;10.20;99.90;;;;;;4085159;29;20187;-95
2024/04/09 08:25:31;;;;;;;1.65;0.50;;;10.20;99.90;;;;;;4089303;29;20186;-94
2024/04/09 08:27:42;;;;;;;2.35;0.40;;;10.30;99.90;;;;;;4088060;29;20282;-94
2024/04/09 08:30:23;;;;;;;0.57;0.22;;;10.30;99.90;;;;;;4068972;29;20211;-93
2024/04/09 08:32:32;;;;;;;0.52;0.25;;;10.60;99.90;;;;;;4066228;29;20211;-95
2024/04/09 08:34:58;;;;;;;0.82;0.50;;;10.60;99.90;;;;;;4078387;29;20186;-94
2024/04/09 08:38:12;;;;;;;3.35;0.35;;;10.40;99.90;;;;;;4082899;29;20210;-94
2024/04/09 08:40:22;;;;;;;6.50;0.43;;;10.50;99.90;;;;;;4035901;29;20537;-95
2024/04/09 08:42:44;;;;;;;1.10;0.38;;;10.80;99.90;;;;;;4021562;29;20235;-95
2024/04/09 08:45:02;;;;;;;0.28;0.13;;;11.30;99.90;;;;;;4045143;29;20207;-95
2024/04/09 08:47:23;;;;;;;;;;;;;;;;;;;;;
2024/04/09 08:49:44;;;;;;;1.63;0.25;;;12.10;99.90;;;;;;4084207;29;20642;-94
2024/04/09 08:52:33;;;;;;;3.55;0.40;;;12.00;99.90;;;;;;4066857;29;20714;-94
2024/04/09 08:54:54;;;;;;;5.07;0.75;;;12.10;99.90;;;;;;4083592;29;20191;-93
2024/04/09 08:57:01;;;;;;;0.63;0.00;;;12.80;99.90;;;;;;4069484;29;20177;-93
2024/04/09 08:59:18;;;;;;;0.25;0.13;;;12.90;99.90;;;;;;4073932;29;20183;-94
2024/04/09 09:02:15;;;;;;;1.77;0.22;;;12.70;99.90;;;;;;4086232;29;20215;-94
2024/04/09 09:04:43;;;;;;;0.25;0.10;;;12.40;99.90;;;;;;4065899;29;20663;-94
2024/04/09 09:06:44;;;;;;;0.00;0.00;;;12.30;99.90;;;;;;4084003;29;20179;-94
2024/04/09 09:08:51;;;;;;;0.82;0.40;;;12.00;99.90;;;;;;4068463;29;20181;-95
2024/04/09 09:11:09;;;;;;;0.28;0.10;;;11.90;99.90;;;;;;4052581;29;20230;-95
2024/04/09 09:13:12;;;;;;;0.52;0.10;;;11.80;99.90;;;;;;4068652;29;20180;-94
2024/04/09 09:15:20;;;;;;;0.10;0.10;;;11.80;99.90;;;;;;4068611;29;20188;-94
2024/04/09 09:17:37;;;;;;;;;;;;;;;;;;;;;
2024/04/09 09:19:43;;;;;;;5.50;2.35;;;11.70;99.90;;;;;;4068126;29;20180;-94
2024/04/09 09:21:55;;;;;;;0.73;0.57;;;12.00;99.90;;;;;;4068155;29;20215;-94
2024/04/09 09:24:33;;;;;;;0.57;0.25;;;12.00;99.90;;;;;;4083662;29;20187;-94
2024/04/09 09:27:04;;;;;;;1.73;0.57;;;11.80;99.90;;;;;;4036450;29;20329;-93
2024/04/09 09:29:16;;;;;;;1.38;0.20;;;11.80;99.90;;;;;;4005942;29;20190;-94
2024/04/09 09:31:29;;;;;;;0.52;0.28;;;12.10;99.90;;;;;;4041477;29;20356;-94
2024/04/09 09:34:10;;;;;;;0.30;0.17;;;12.00;99.90;;;;;;4068149;29;20686;-94
2024/04/09 09:36:14;;;;;;;0.20;0.10;;;12.10;99.90;;;;;;4068220;29;20184;-92
2024/04/09 09:39:02;;;;;;;25.33;10.00;;;12.20;99.90;;;;;;4069535;29;20181;-94
2024/04/09 09:41:06;;;;;;;1.65;0.73;;;12.50;99.90;;;;;;4062875;29;20211;-92
2024/04/09 09:43:22;;;;;;;0.40;0.28;;;12.40;99.90;;;;;;4070624;29;20548;-95
2024/04/09 09:45:48;;;;;;;0.38;0.13;;;12.20;99.90;;;;;;4085164;29;20184;-94
2024/04/09 09:51:31;;;;;;;4.38;0.32;;;11.80;99.90;;;;;;4076639;29;20218;-94
2024/04/09 09:54:01;;;;;;;2.10;0.65;;;11.70;99.90;;;;;;4086499;29;20609;-95
2024/04/09 09:56:06;;;;;;;9.05;0.35;;;11.80;99.90;;;;;;4086021;29;20599;-93
2024/04/09 09:58:44;;;;;;;;;;;;;;;;;;;;;
2024/04/09 10:00:56;;;;;;;1.63;0.40;;;11.60;99.90;;;;;;4070336;29;20308;-93
2024/04/09 10:03:36;;;;;;;1.40;0.25;;;11.60;99.90;;;;;;4055409;29;20228;-93
2024/04/09 10:06:08;;;;;;;;;;;;;;;;;;;;;
2024/04/09 10:08:59;;;;;;;1.17;0.47;;;11.70;99.90;;;;;;4086621;29;20183;-93
2024/04/09 10:11:49;;;;;;;1.25;0.15;;;11.70;99.90;;;;;;4022772;29;20222;-93
2024/04/09 10:14:42;;;;;;;1.30;0.35;;;11.80;99.90;;;;;;4025330;29;20285;-94
2024/04/09 10:17:33;;;;;;;;;;;;;;;;;;;;;
2024/04/09 10:20:22;;;;;;;1.58;0.20;;;11.60;99.90;;;;;;4039072;29;20237;-94
2024/04/09 10:25:45;;;;;;;1.65;0.63;;;11.60;99.90;;;;;;4024708;29;20205;-95
2024/04/09 10:28:07;;;;;;;6.43;1.00;;;11.80;99.90;;;;;;4038272;29;20249;-95
2024/04/09 10:33:36;;;;;;;3.30;0.35;;;12.10;99.90;;;;;;4024838;29;20184;-94
2024/04/09 10:36:30;;;;;;;1.55;0.17;;;12.60;99.90;;;;;;4069998;29;20224;-95
2024/04/09 10:38:41;;;;;;;0.03;0.03;;;12.80;99.90;;;;;;4086075;29;20730;-96
2024/04/09 10:41:14;;;;;;;0.98;0.10;;;12.40;99.90;;;;;;4068953;29;20169;-94
2024/04/09 10:43:28;;;;;;;1.45;0.00;;;12.20;99.90;;;;;;4069847;29;20191;-94
2024/04/09 10:46:11;;;;;;;2.53;0.43;;;12.00;99.90;;;;;;4056354;29;20189;-94
2024/04/09 10:51:35;;;;;;;;;;;;;;;;;;;;;
2024/04/09 10:53:39;;;;;;;0.45;0.28;;;12.40;99.90;;;;;;4068175;29;20180;-94
2024/04/09 10:56:33;;;;;;;0.30;0.22;;;12.40;99.90;;;;;;4086801;29;20610;-94
2024/04/09 10:58:36;;;;;;;1.10;0.20;;;12.40;99.90;;;;;;4086680;29;20262;-94
2024/04/09 11:14:14;;;;;;;0.50;0.10;;;12.90;99.90;;;;;;4070098;29;20184;-94
2024/04/09 11:17:00;;;;;;;;;;;;;;;;;;;;;
2024/04/09 11:19:39;;;;;;;;;;;;;;;;;;;;;
2024/04/09 11:22:08;;;;;;;0.22;0.20;;;12.90;99.90;;;;;;4086231;29;20627;-94
2024/04/09 11:24:14;;;;;;;0.15;0.13;;;12.80;99.90;;;;;;4069761;29;20679;-94
2024/04/09 11:26:28;;;;;;;0.43;0.17;;;12.70;99.90;;;;;;4084521;29;20681;-94
2024/04/09 11:28:32;;;;;;;0.10;0.00;;;13.00;99.90;;;;;;4085176;29;20179;-94
2024/04/09 11:31:05;;;;;;;0.00;0.00;;;13.10;99.90;;;;;;4086015;29;20610;-94
2024/04/09 11:33:17;;;;;;;3.03;0.47;;;13.40;99.90;;;;;;4071416;29;20200;-94
2024/04/09 11:36:03;;;;;;;0.65;0.47;;;13.40;99.90;;;;;;4085198;29;20226;-95
2024/04/09 11:41:59;;;;;;;1.33;0.30;;;13.30;99.90;;;;;;4050602;29;20200;-96
2024/04/09 11:44:43;;;;;;;0.80;0.10;;;13.70;99.90;;;;;;4076407;29;20393;-95
2024/04/09 11:47:16;;;;;;;2.90;0.20;;;13.40;99.90;;;;;;4065022;29;20188;-95
2024/04/09 11:49:35;;;;;;;2.10;0.10;;;13.40;99.90;;;;;;4055169;29;20231;-93
2024/04/09 11:52:26;;;;;;;1.10;0.40;;;13.00;99.90;;;;;;4069295;29;20734;-95
2024/04/09 11:54:55;;;;;;;0.10;0.00;;;13.00;99.90;;;;;;4085725;29;20746;-94
2024/04/09 11:57:19;;;;;;;0.85;0.10;;;12.90;99.90;;;;;;4066096;29;20236;-94
2024/04/09 12:03:27;;;;;;;1.65;0.40;;;13.30;99.90;;;;;;4048917;29;20255;-95
2024/04/09 12:06:32;;;;;;;0.30;0.00;;;13.30;99.90;;;;;;4070434;29;20687;-96
2024/04/09 12:09:00;;;;;;;;;;;;;;;;;;;;;
2024/04/09 12:13:31;;;;;;;0.77;0.40;;;13.30;99.90;;;;;;4084853;29;20183;-94
2024/04/09 12:16:22;;;;;;;;;;;;;;;;;;;;;
2024/04/09 12:18:31;;;;;;;0.60;0.03;;;13.70;99.90;;;;;;4068872;29;20203;-95
2024/04/09 12:20:35;;;;;;;0.10;0.10;;;13.90;99.90;;;;;;4084713;29;20267;-95
2024/04/09 12:22:45;;;;;;;0.03;0.00;;;13.90;99.90;;;;;;4054817;29;20185;-95
2024/04/09 12:25:29;;;;;;;8.88;0.30;;;13.50;99.90;;;;;;4084301;29;20190;-96
2024/04/09 12:27:33;;;;;;;0.60;0.20;;;13.70;99.90;;;;;;4064702;29;20590;-94
2024/04/09 12:29:52;;;;;;;0.35;0.20;;;13.60;99.90;;;;;;4054345;29;20216;-94
2024/04/09 12:32:17;;;;;;;2.30;0.43;;;13.60;99.90;;;;;;4053218;29;20197;-93
2024/04/09 12:35:08;;;;;;;2.15;0.28;;;13.90;99.90;;;;;;4069781;29;20248;-94
2024/04/09 12:40:19;;;;;;;0.22;0.22;;;14.10;99.90;;;;;;4041510;29;20259;-95
2024/04/09 12:42:29;;;;;;;0.52;0.10;;;14.10;99.90;;;;;;4053855;29;20189;-95
2024/04/09 12:44:32;;;;;;;0.10;0.10;;;14.10;99.90;;;;;;4085033;29;20184;-93
2024/04/09 12:47:02;;;;;;;0.60;0.10;;;13.70;99.90;;;;;;4068938;29;20169;-94
2024/04/09 12:51:43;;;;;;;1.77;0.80;;;13.40;99.90;;;;;;4058523;29;20223;-94
2024/04/09 12:54:07;;;;;;;1.50;0.20;;;13.10;99.90;;;;;;4069509;29;20169;-93
2024/04/09 12:56:38;;;;;;;0.30;0.30;;;13.30;99.90;;;;;;4083544;29;20184;-95
2024/04/09 12:59:14;;;;;;;1.80;0.40;;;13.50;99.90;;;;;;4083418;29;20188;-94
2024/04/09 13:01:36;;;;;;;0.20;0.20;;;13.50;99.90;;;;;;4084270;29;20230;-95
2024/04/09 13:04:34;;;;;;;0.35;0.10;;;13.70;99.90;;;;;;4070846;29;20179;-95
2024/04/09 13:06:37;;;;;;;0.15;0.10;;;13.80;99.90;;;;;;4096748;29;20171;-93
2024/04/09 13:08:50;;;;;;;3.53;0.13;;;13.90;99.90;;;;;;4058566;29;20244;-94
2024/04/09 13:11:05;;;;;;;0.00;0.00;;;13.90;99.90;;;;;;4068359;29;20583;-95
2024/04/09 13:13:28;;;;;;;1.00;0.30;;;13.90;99.90;;;;;;4085546;29;20226;-93
2024/04/09 13:16:18;;;;;;;0.30;0.00;;;14.00;99.90;;;;;;4071546;29;20179;-94
2024/04/09 13:18:37;;;;;;;2.88;0.35;;;14.00;99.90;;;;;;4056757;29;20185;-94
2024/04/09 13:20:50;;;;;;;0.10;0.10;;;13.70;99.90;;;;;;4070719;29;20224;-95
2024/04/09 13:23:29;;;;;;;0.73;0.20;;;13.50;99.90;;;;;;4071531;29;20188;-93
2024/04/09 13:25:36;;;;;;;1.17;0.20;;;13.50;99.90;;;;;;4081871;29;20214;-96
2024/04/09 13:27:45;;;;;;;0.13;0.10;;;13.40;99.90;;;;;;4071110;29;20683;-93
2024/04/09 13:30:06;;;;;;;0.20;0.15;;;13.50;99.90;;;;;;4070966;29;20216;-93
2024/04/09 13:32:09;;;;;;;0.10;0.10;;;13.70;99.90;;;;;;4086575;29;20245;-93
2024/04/09 13:34:25;;;;;;;0.80;0.10;;;13.90;99.90;;;;;;4070890;29;20180;-94
2024/04/09 13:36:40;;;;;;;1.10;0.10;;;14.00;99.90;;;;;;4086727;29;20557;-95
2024/04/09 13:38:50;;;;;;;1.88;0.00;;;14.30;99.90;;;;;;4087052;29;20176;-95
2024/04/09 13:40:58;;;;;;;0.35;0.10;;;14.40;99.90;;;;;;4086823;29;20270;-93
2024/04/09 13:43:29;;;;;;;2.92;0.20;;;14.40;99.90;;;;;;4091558;29;20171;-94
2024/04/09 13:46:10;;;;;;;0.52;0.03;;;14.10;99.90;;;;;;4085371;29;20183;-94
2024/04/09 13:48:41;;;;;;;0.00;0.00;;;13.90;99.90;;;;;;4055411;29;20181;-95
2024/04/09 13:51:17;;;;;;;0.28;0.08;;;13.60;99.90;;;;;;4073015;29;20228;-95
2024/04/09 13:53:45;;;;;;;0.63;0.30;;;13.40;99.90;;;;;;4083527;29;20206;-93
2024/04/09 13:56:22;;;;;;;2.17;0.55;;;12.70;99.90;;;;;;4063839;29;20202;-93
2024/04/09 13:58:57;;;;;;;1.67;0.55;;;12.40;99.90;;;;;;4086740;29;20262;-95
2024/04/09 14:01:21;;;;;;;2.63;1.23;;;12.20;99.90;;;;;;4085898;29;20199;-94
2024/04/09 14:04:15;;;;;;;2.38;0.15;;;12.30;99.90;;;;;;4055336;29;20173;-94
2024/04/09 14:07:03;;;;;;;1.35;0.43;;;12.50;99.90;;;;;;4024778;29;20186;-94
2024/04/09 14:09:58;;;;;;;6.10;2.05;;;12.60;99.90;;;;;;4051853;29;20225;-94
2024/04/09 14:12:43;;;;;;;;;;;;;;;;;;;;;
2024/04/09 14:16:05;;;;;;;7.10;3.05;;;12.90;99.90;;;;;;4087500;29;20183;-96
2024/04/09 14:18:15;;;;;;;3.50;0.52;;;12.80;99.90;;;;;;4022074;29;20587;-94
2024/04/09 14:20:46;;;;;;;3.03;0.45;;;12.70;99.90;;;;;;4054509;29;20185;-94
2024/04/09 14:23:15;;;;;;;10.13;1.55;;;12.90;99.90;;;;;;4055139;29;20173;-95
2024/04/09 14:25:20;;;;;;;13.18;5.32;;;13.00;99.90;;;;;;4068773;29;20208;-92
2024/04/09 14:28:08;;;;;;;8.45;1.55;;;13.00;99.90;;;;;;4085646;29;20278;-95
2024/04/09 14:30:22;;;;;;;2.80;0.80;;;13.00;99.90;;;;;;4056348;29;20220;-94
2024/04/09 14:33:01;;;;;;;;;;;;;;;;;;;;;
2024/04/09 14:35:50;;;;;;;17.00;3.97;;;12.60;99.90;;;;;;4085691;29;20191;-94
2024/04/09 14:40:51;;;;;;;9.32;1.30;;;12.20;99.90;;;;;;4016260;29;20193;-95
2024/04/09 14:43:12;;;;;;;7.32;1.77;;;12.10;99.90;;;;;;4017545;29;20190;-95
2024/04/09 14:45:28;;;;;;;6.72;1.73;;;12.20;99.90;;;;;;3993767;29;20253;-93
2024/04/09 14:48:23;;;;;;;8.68;2.38;;;11.80;99.90;;;;;;4025281;29;20214;-94
2024/04/09 15:14:11;;;;;;;2.38;0.47;;;12.70;99.90;;;;;;4479787;23;20222;-92
2024/04/09 15:17:34;;;;;;;1.77;0.60;;;12.70;99.90;;;;;;4074582;29;20271;-94
2024/04/09 15:20:58;;;;;;;;;;;;;;;;;;;;;
2024/04/09 15:23:18;;;;;;;4.80;1.77;;;12.00;99.90;;;;;;4045049;29;20204;-95
2024/04/09 15:26:13;;;;;;;6.68;1.50;;;12.00;99.90;;;;;;4044321;29;20177;-94
2024/04/09 15:34:20;;;;;;;7.47;0.75;;;12.90;99.90;;;;;;4298515;23;20295;-94
2024/04/09 15:36:46;;;;;;;1.77;0.50;;;12.80;99.90;;;;;;4065951;29;20713;-94
2024/04/09 15:39:36;;;;;;;2.50;0.60;;;12.70;99.90;;;;;;4057748;29;20180;-96
2024/04/09 15:41:58;;;;;;;5.55;0.95;;;12.90;99.90;;;;;;4052418;29;20304;-94
2024/04/09 15:44:52;;;;;;;4.55;0.80;;;12.80;99.90;;;;;;4072152;29;20199;-93
2024/04/09 15:47:55;;;;;;;6.13;0.88;;;12.80;99.90;;;;;;4056234;29;20188;-95
2024/04/09 15:57:14;;;;;;;9.07;1.27;;;12.90;99.90;;;;;;3994402;29;20195;-94
2024/04/09 16:02:48;;;;;;;7.53;0.98;;;13.00;99.90;;;;;;4002729;29;20219;-94
2024/04/09 16:06:17;;;;;;;3.53;0.82;;;13.10;99.90;;;;;;3994635;29;20183;-93
2024/04/09 16:09:07;;;;;;;2.15;0.63;;;13.10;99.90;;;;;;4006828;29;20619;-94
2024/04/09 16:11:39;;;;;;;;;;;;;;;;;;;;;
2024/04/09 16:21:27;;;;;;;2.72;0.70;;;12.90;99.90;;;;;;4071900;29;20184;-96
2024/04/09 16:24:00;;;;;;;6.63;0.85;;;13.00;99.90;;;;;;4052708;29;20186;-95
2024/04/09 16:26:23;;;;;;;7.85;1.13;;;13.10;99.90;;;;;;4074021;29;20179;-94
2024/04/09 16:28:47;;;;;;;4.03;0.60;;;13.20;99.90;;;;;;4052942;29;20203;-95
2024/04/09 16:31:13;;;;;;;5.00;0.73;;;13.30;99.90;;;;;;4054233;29;20228;-94
2024/04/09 16:34:12;;;;;;;3.53;0.70;;;13.10;99.90;;;;;;4072863;29;20187;-95
2024/04/09 16:37:11;;;;;;;5.45;0.93;;;13.20;99.90;;;;;;4068498;29;20210;-96
2024/04/09 16:40:25;;;;;;;;;;;;;;;;;;;;;
2024/04/09 16:43:11;;;;;;;4.93;0.50;;;13.30;99.90;;;;;;4070746;29;20177;-93
2024/04/09 16:46:05;;;;;;;6.75;0.60;;;13.20;99.90;;;;;;4058555;29;20215;-94
2024/04/09 16:49:06;;;;;;;7.97;0.88;;;13.40;99.90;;;;;;4039894;29;20560;-93
2024/04/09 16:51:30;;;;;;;2.83;0.95;;;13.20;99.90;;;;;;4071282;29;20243;-92
2024/04/09 16:54:27;;;;;;;;;;;;;;;;;;;;;
2024/04/09 17:07:28;;;;;;;2.10;0.63;;;12.80;99.90;;;;;;4226265;23;20623;-93
2024/04/09 17:16:39;;;;;;;8.20;0.80;;;12.70;99.90;;;;;;4055738;29;20192;-94
2024/04/09 17:19:29;;;;;;;8.75;0.60;;;12.50;99.90;;;;;;4026447;29;20281;-93
2024/04/09 17:22:23;;;;;;;;;;;;;;;;;;;;;
2024/04/09 17:24:58;;;;;;;12.27;1.42;;;12.50;99.90;;;;;;4057632;29;20218;-96
2024/04/09 17:28:07;;;;;;;2.67;0.52;;;12.60;99.90;;;;;;4026815;29;20193;-95
2024/04/09 17:31:43;;;;;;;;;;;;;;;;;;;;;
2024/04/09 17:35:57;;;;;;;;;;;;;;;;;;;;;
2024/04/09 17:41:31;;;;;;;16.02;2.25;;;12.50;99.90;;;;;;3988467;29;20336;-94
2024/04/09 17:44:49;;;;;;;7.03;0.77;;;12.50;99.90;;;;;;4024536;29;20185;-94
2024/04/09 17:48:31;;;;;;;;;;;;;;;;;;;;;
2024/04/09 17:54:15;;;;;;;4.35;1.00;;;12.30;99.90;;;;;;3976961;29;20231;-93
2024/04/09 17:56:51;;;;;;;6.00;0.95;;;12.30;99.90;;;;;;4018349;29;20190;-95
2024/04/09 18:00:04;;;;;;;;;;;;;;;;;;;;;
2024/04/09 18:02:23;;;;;;;7.80;0.90;;;12.20;99.90;;;;;;3996808;29;20200;-94
2024/04/09 18:12:53;;;;;;;14.25;1.95;;;12.20;99.90;;;;;;3922713;30;20641;-94
2024/04/09 18:15:28;;;;;;;7.38;0.77;;;12.10;99.90;;;;;;3919383;30;20233;-95
2024/04/09 18:18:44;;;;;;;11.07;1.00;;;12.30;99.90;;;;;;3967561;29;20205;-94
2024/04/09 18:21:03;;;;;;;5.45;1.13;;;12.20;99.90;;;;;;3950830;30;20227;-93
2024/04/09 18:27:43;;;;;;;2.80;0.70;;;11.90;99.90;;;;;;4056025;29;20257;-95
2024/04/09 18:30:32;;;;;;;5.43;1.00;;;12.00;99.90;;;;;;4014425;29;20225;-94
2024/04/09 18:33:20;;;;;;;;;;;;;;;;;;;;;
2024/04/09 18:36:33;;;;;;;9.80;0.73;;;12.00;99.90;;;;;;4025933;29;20221;-95
2024/04/09 18:39:10;;;;;;;4.85;0.52;;;11.90;99.90;;;;;;3965913;29;20201;-94
2024/04/09 18:42:28;;;;;;;;;;;;;;;;;;;;;